createdAt,value
2018-08-03T00:00:56.289Z,1018.92
2018-08-03T00:02:03.788Z,1018.89
2018-08-03T00:02:56.261Z,1018.92
2018-08-03T00:04:04.527Z,1018.90
2018-08-03T00:05:05.577Z,1018.89
2018-08-03T00:05:56.220Z,1018.89
2018-08-03T00:06:56.207Z,1018.90
2018-08-03T00:07:56.214Z,1018.90
2018-08-03T00:08:56.200Z,1018.89
2018-08-03T00:09:56.180Z,1018.82
2018-08-03T00:10:56.161Z,1018.82
2018-08-03T00:11:56.172Z,1018.81
2018-08-03T00:12:56.164Z,1018.80
2018-08-03T00:13:56.136Z,1018.77
2018-08-03T00:14:56.126Z,1018.78
2018-08-03T00:15:56.131Z,1018.76
2018-08-03T00:16:56.108Z,1018.76
2018-08-03T00:17:56.114Z,1018.76
2018-08-03T00:18:56.090Z,1018.78
2018-08-03T00:19:56.092Z,1018.79
2018-08-03T00:20:56.065Z,1018.80
2018-08-03T00:21:56.062Z,1018.81
2018-08-03T00:22:56.044Z,1018.78
2018-08-03T00:23:56.057Z,1018.81
2018-08-03T00:24:56.074Z,1018.80
2018-08-03T00:25:56.020Z,1018.84
2018-08-03T00:26:56.006Z,1018.83
2018-08-03T00:27:56.019Z,1018.86
2018-08-03T00:28:56.028Z,1018.82
2018-08-03T00:29:55.990Z,1018.82
2018-08-03T00:30:55.968Z,1018.83
2018-08-03T00:31:55.952Z,1018.77
2018-08-03T00:32:55.945Z,1018.79
2018-08-03T00:33:55.933Z,1018.75
2018-08-03T00:34:55.920Z,1018.74
2018-08-03T00:35:55.954Z,1018.70
2018-08-03T00:36:55.932Z,1018.73
2018-08-03T00:37:55.892Z,1018.73
2018-08-03T00:38:55.892Z,1018.69
2018-08-03T00:39:55.892Z,1018.72
2018-08-03T00:40:55.872Z,1018.71
2018-08-03T00:41:55.882Z,1018.75
2018-08-03T00:42:55.851Z,1018.71
2018-08-03T00:43:55.838Z,1018.70
2018-08-03T00:44:55.824Z,1018.66
2018-08-03T00:45:55.812Z,1018.72
2018-08-03T00:46:55.840Z,1018.74
2018-08-03T00:47:55.798Z,1018.72
2018-08-03T00:48:55.783Z,1018.68
2018-08-03T00:49:55.775Z,1018.69
2018-08-03T00:50:55.769Z,1018.70
2018-08-03T00:51:55.776Z,1018.70
2018-08-03T00:52:55.745Z,1018.68
2018-08-03T00:53:55.734Z,1018.68
2018-08-03T00:54:55.726Z,1018.71
2018-08-03T00:55:55.718Z,1018.70
2018-08-03T00:56:55.707Z,1018.71
2018-08-03T00:57:55.713Z,1018.71
2018-08-03T00:58:55.688Z,1018.73
2018-08-03T00:59:55.677Z,1018.72
2018-08-03T01:00:55.667Z,1018.69
2018-08-03T01:01:55.655Z,1018.66
2018-08-03T01:02:55.648Z,1018.64
2018-08-03T01:03:55.653Z,1018.65
2018-08-03T01:04:55.626Z,1018.67
2018-08-03T01:05:55.629Z,1018.67
2018-08-03T01:06:55.604Z,1018.63
2018-08-03T01:07:55.592Z,1018.73
2018-08-03T01:08:55.598Z,1018.72
2018-08-03T01:09:55.575Z,1018.70
2018-08-03T01:10:55.572Z,1018.72
2018-08-03T01:11:55.556Z,1018.71
2018-08-03T01:12:55.543Z,1018.68
2018-08-03T01:13:55.554Z,1018.71
2018-08-03T01:14:55.534Z,1018.71
2018-08-03T01:15:55.515Z,1018.70
2018-08-03T01:16:55.505Z,1018.73
2018-08-03T01:17:55.499Z,1018.73
2018-08-03T01:18:55.482Z,1018.71
2018-08-03T01:19:55.501Z,1018.70
2018-08-03T01:20:55.460Z,1018.67
2018-08-03T01:21:55.464Z,1018.69
2018-08-03T01:22:55.441Z,1018.66
2018-08-03T01:23:55.451Z,1018.71
2018-08-03T01:24:55.428Z,1018.67
2018-08-03T01:25:55.428Z,1018.67
2018-08-03T01:26:55.402Z,1018.68
2018-08-03T01:27:55.398Z,1018.65
2018-08-03T01:28:55.383Z,1018.66
2018-08-03T01:29:55.370Z,1018.66
2018-08-03T01:30:55.361Z,1018.61
2018-08-03T01:31:55.373Z,1018.62
2018-08-03T01:32:55.336Z,1018.59
2018-08-03T01:33:55.332Z,1018.56
2018-08-03T01:34:55.317Z,1018.58
2018-08-03T01:35:55.320Z,1018.53
2018-08-03T01:36:55.328Z,1018.56
2018-08-03T01:37:55.398Z,1018.52
2018-08-03T01:39:03.643Z,1018.54
2018-08-03T01:40:03.681Z,1018.51
2018-08-03T01:40:55.281Z,1018.54
2018-08-03T01:42:02.785Z,1018.51
2018-08-03T01:43:03.245Z,1018.53
2018-08-03T01:43:55.239Z,1018.53
2018-08-03T01:44:55.217Z,1018.55
2018-08-03T01:45:55.212Z,1018.56
2018-08-03T01:47:16.226Z,1018.55
2018-08-03T01:47:55.185Z,1018.57
2018-08-03T01:48:55.182Z,1018.59
2018-08-03T01:49:55.176Z,1018.55
2018-08-03T01:50:55.158Z,1018.56
2018-08-03T01:51:55.167Z,1018.59
2018-08-03T01:52:55.142Z,1018.53
2018-08-03T01:53:55.136Z,1018.56
2018-08-03T01:54:55.105Z,1018.56
2018-08-03T01:55:55.104Z,1018.57
2018-08-03T01:56:55.102Z,1018.61
2018-08-03T01:57:55.093Z,1018.58
2018-08-03T01:58:55.067Z,1018.60
2018-08-03T01:59:55.069Z,1018.59
2018-08-03T02:00:55.047Z,1018.56
2018-08-03T02:01:55.034Z,1018.51
2018-08-03T02:02:55.027Z,1018.56
2018-08-03T02:03:55.032Z,1018.50
2018-08-03T02:04:55.017Z,1018.51
2018-08-03T02:05:54.993Z,1018.52
2018-08-03T02:06:54.986Z,1018.53
2018-08-03T02:07:54.982Z,1018.55
2018-08-03T02:08:54.989Z,1018.51
2018-08-03T02:09:54.959Z,1018.52
2018-08-03T02:10:54.944Z,1018.53
2018-08-03T02:11:54.935Z,1018.52
2018-08-03T02:12:54.924Z,1018.51
2018-08-03T02:13:54.925Z,1018.53
2018-08-03T02:14:54.903Z,1018.53
2018-08-03T02:15:54.899Z,1018.51
2018-08-03T02:16:54.892Z,1018.52
2018-08-03T02:17:54.872Z,1018.54
2018-08-03T02:18:54.868Z,1018.55
2018-08-03T02:19:54.843Z,1018.54
2018-08-03T02:20:54.831Z,1018.55
2018-08-03T02:21:54.842Z,1018.51
2018-08-03T02:22:54.811Z,1018.51
2018-08-03T02:23:54.819Z,1018.55
2018-08-03T02:24:54.789Z,1018.55
2018-08-03T02:25:54.783Z,1018.58
2018-08-03T02:26:54.769Z,1018.55
2018-08-03T02:27:54.767Z,1018.55
2018-08-03T02:28:54.751Z,1018.55
2018-08-03T02:29:54.757Z,1018.57
2018-08-03T02:30:54.737Z,1018.50
2018-08-03T02:31:54.722Z,1018.54
2018-08-03T02:32:54.713Z,1018.53
2018-08-03T02:33:54.730Z,1018.52
2018-08-03T02:34:54.705Z,1018.52
2018-08-03T02:35:54.690Z,1018.52
2018-08-03T02:36:54.667Z,1018.52
2018-08-03T02:37:54.655Z,1018.56
2018-08-03T02:38:54.649Z,1018.52
2018-08-03T02:39:54.699Z,1018.53
2018-08-03T02:40:54.657Z,1018.54
2018-08-03T02:41:54.629Z,1018.57
2018-08-03T02:42:54.600Z,1018.57
2018-08-03T02:43:54.592Z,1018.60
2018-08-03T02:44:54.582Z,1018.58
2018-08-03T02:45:54.590Z,1018.57
2018-08-03T02:46:54.561Z,1018.55
2018-08-03T02:47:54.545Z,1018.58
2018-08-03T02:48:54.535Z,1018.58
2018-08-03T02:49:54.531Z,1018.61
2018-08-03T02:50:54.530Z,1018.61
2018-08-03T02:51:54.516Z,1018.59
2018-08-03T02:52:54.509Z,1018.64
2018-08-03T02:53:54.486Z,1018.65
2018-08-03T02:54:54.483Z,1018.66
2018-08-03T02:55:54.480Z,1018.66
2018-08-03T02:56:54.451Z,1018.67
2018-08-03T02:57:54.458Z,1018.69
2018-08-03T02:58:54.433Z,1018.67
2018-08-03T02:59:54.443Z,1018.63
2018-08-03T03:00:54.430Z,1018.64
2018-08-03T03:01:54.414Z,1018.62
2018-08-03T03:02:54.390Z,1018.65
2018-08-03T03:03:54.392Z,1018.67
2018-08-03T03:04:54.363Z,1018.71
2018-08-03T03:05:54.360Z,1018.69
2018-08-03T03:06:54.381Z,1018.69
2018-08-03T03:07:54.334Z,1018.70
2018-08-03T03:08:54.316Z,1018.67
2018-08-03T03:09:54.318Z,1018.69
2018-08-03T03:10:54.311Z,1018.71
2018-08-03T03:11:54.308Z,1018.66
2018-08-03T03:12:54.276Z,1018.69
2018-08-03T03:13:54.267Z,1018.66
2018-08-03T03:14:54.256Z,1018.67
2018-08-03T03:15:54.247Z,1018.64
2018-08-03T03:16:54.255Z,1018.65
2018-08-03T03:17:54.225Z,1018.66
2018-08-03T03:18:54.218Z,1018.61
2018-08-03T03:19:54.199Z,1018.68
2018-08-03T03:20:54.198Z,1018.67
2018-08-03T03:21:54.203Z,1018.68
2018-08-03T03:22:54.171Z,1018.63
2018-08-03T03:23:54.174Z,1018.66
2018-08-03T03:24:54.149Z,1018.66
2018-08-03T03:25:54.145Z,1018.63
2018-08-03T03:26:54.146Z,1018.65
2018-08-03T03:27:54.120Z,1018.64
2018-08-03T03:28:54.107Z,1018.67
2018-08-03T03:29:54.103Z,1018.68
2018-08-03T03:30:54.085Z,1018.64
2018-08-03T03:31:54.073Z,1018.65
2018-08-03T03:32:54.072Z,1018.67
2018-08-03T03:33:54.069Z,1018.69
2018-08-03T03:34:54.065Z,1018.71
2018-08-03T03:35:54.026Z,1018.70
2018-08-03T03:36:54.016Z,1018.68
2018-08-03T03:37:54.005Z,1018.65
2018-08-03T03:38:54.018Z,1018.67
2018-08-03T03:39:53.986Z,1018.65
2018-08-03T03:40:53.971Z,1018.67
2018-08-03T03:41:53.965Z,1018.64
2018-08-03T03:42:53.970Z,1018.65
2018-08-03T03:43:53.959Z,1018.64
2018-08-03T03:44:53.946Z,1018.69
2018-08-03T03:45:53.938Z,1018.66
2018-08-03T03:46:53.907Z,1018.66
2018-08-03T03:47:53.901Z,1018.67
2018-08-03T03:48:53.887Z,1018.68
2018-08-03T03:49:53.890Z,1018.68
2018-08-03T03:50:53.901Z,1018.63
2018-08-03T03:51:53.878Z,1018.66
2018-08-03T03:52:53.845Z,1018.61
2018-08-03T03:53:53.831Z,1018.64
2018-08-03T03:54:53.832Z,1018.66
2018-08-03T03:55:53.828Z,1018.65
2018-08-03T03:56:53.807Z,1018.66
2018-08-03T03:57:53.789Z,1018.65
2018-08-03T03:58:53.770Z,1018.69
2018-08-03T03:59:53.777Z,1018.67
2018-08-03T04:00:53.768Z,1018.69
2018-08-03T04:01:53.740Z,1018.67
2018-08-03T04:02:53.735Z,1018.67
2018-08-03T04:03:53.738Z,1018.69
2018-08-03T04:04:53.754Z,1018.65
2018-08-03T04:05:53.699Z,1018.68
2018-08-03T04:06:53.683Z,1018.66
2018-08-03T04:07:53.686Z,1018.65
2018-08-03T04:08:53.659Z,1018.67
2018-08-03T04:09:53.667Z,1018.68
2018-08-03T04:10:53.695Z,1018.66
2018-08-03T04:11:53.635Z,1018.67
2018-08-03T04:12:53.670Z,1018.64
2018-08-03T04:13:53.631Z,1018.67
2018-08-03T04:14:53.604Z,1018.60
2018-08-03T04:15:53.625Z,1018.62
2018-08-03T04:16:53.587Z,1018.59
2018-08-03T04:17:53.578Z,1018.59
2018-08-03T04:18:53.574Z,1018.55
2018-08-03T04:19:53.570Z,1018.59
2018-08-03T04:20:53.553Z,1018.57
2018-08-03T04:21:53.529Z,1018.57
2018-08-03T04:22:53.531Z,1018.58
2018-08-03T04:23:53.498Z,1018.57
2018-08-03T04:24:53.485Z,1018.56
2018-08-03T04:25:53.516Z,1018.57
2018-08-03T04:26:53.475Z,1018.58
2018-08-03T04:27:53.482Z,1018.57
2018-08-03T04:28:53.460Z,1018.59
2018-08-03T04:29:53.440Z,1018.60
2018-08-03T04:30:53.423Z,1018.60
2018-08-03T04:31:53.437Z,1018.58
2018-08-03T04:32:53.417Z,1018.60
2018-08-03T04:33:53.397Z,1018.58
2018-08-03T04:34:53.403Z,1018.56
2018-08-03T04:35:53.384Z,1018.55
2018-08-03T04:36:53.405Z,1018.57
2018-08-03T04:37:53.392Z,1018.59
2018-08-03T04:38:53.364Z,1018.58
2018-08-03T04:39:53.344Z,1018.61
2018-08-03T04:40:53.367Z,1018.63
2018-08-03T04:41:53.326Z,1018.66
2018-08-03T04:42:53.321Z,1018.65
2018-08-03T04:43:53.304Z,1018.66
2018-08-03T04:44:53.302Z,1018.64
2018-08-03T04:45:53.309Z,1018.65
2018-08-03T04:46:53.252Z,1018.62
2018-08-03T04:47:53.282Z,1018.65
2018-08-03T04:48:53.253Z,1018.64
2018-08-03T04:49:53.218Z,1018.61
2018-08-03T04:50:53.212Z,1018.63
2018-08-03T04:51:53.204Z,1018.65
2018-08-03T04:52:53.202Z,1018.68
2018-08-03T04:53:53.213Z,1018.69
2018-08-03T04:54:53.175Z,1018.73
2018-08-03T04:55:53.181Z,1018.79
2018-08-03T04:56:53.148Z,1018.79
2018-08-03T04:57:53.130Z,1018.77
2018-08-03T04:59:14.135Z,1018.78
2018-08-03T04:59:53.112Z,1018.78
2018-08-03T05:00:53.116Z,1018.77
2018-08-03T05:01:53.089Z,1018.80
2018-08-03T05:02:53.084Z,1018.79
2018-08-03T05:03:53.086Z,1018.81
2018-08-03T05:04:53.054Z,1018.82
2018-08-03T05:05:53.056Z,1018.79
2018-08-03T05:06:53.032Z,1018.84
2018-08-03T05:07:53.030Z,1018.83
2018-08-03T05:08:53.345Z,1018.82
2018-08-03T05:09:53.029Z,1018.82
2018-08-03T05:10:52.990Z,1018.86
2018-08-03T05:11:52.992Z,1018.82
2018-08-03T05:12:52.976Z,1018.86
2018-08-03T05:14:13.989Z,1018.86
2018-08-03T05:14:52.953Z,1018.83
2018-08-03T05:15:52.943Z,1018.85
2018-08-03T05:16:52.928Z,1018.86
2018-08-03T05:17:52.918Z,1018.85
2018-08-03T05:18:52.908Z,1018.86
2018-08-03T05:19:52.924Z,1018.85
2018-08-03T05:20:52.890Z,1018.84
2018-08-03T05:21:52.885Z,1018.88
2018-08-03T05:22:52.883Z,1018.88
2018-08-03T05:23:52.866Z,1018.90
2018-08-03T05:24:52.860Z,1018.88
2018-08-03T05:25:52.835Z,1018.90
2018-08-03T05:26:52.827Z,1018.92
2018-08-03T05:27:52.813Z,1018.91
2018-08-03T05:28:52.796Z,1018.89
2018-08-03T05:29:52.809Z,1018.93
2018-08-03T05:30:52.782Z,1018.89
2018-08-03T05:31:52.770Z,1018.91
2018-08-03T05:32:52.779Z,1018.88
2018-08-03T05:33:52.753Z,1018.84
2018-08-03T05:34:52.734Z,1018.86
2018-08-03T05:35:52.774Z,1018.86
2018-08-03T05:36:52.718Z,1018.84
2018-08-03T05:37:52.711Z,1018.84
2018-08-03T05:38:52.711Z,1018.82
2018-08-03T05:39:52.686Z,1018.85
2018-08-03T05:40:52.679Z,1018.84
2018-08-03T05:41:52.679Z,1018.84
2018-08-03T05:42:52.669Z,1018.84
2018-08-03T05:43:52.644Z,1018.84
2018-08-03T05:44:52.636Z,1018.81
2018-08-03T05:45:52.625Z,1018.82
2018-08-03T05:46:52.660Z,1018.81
2018-08-03T05:47:52.605Z,1018.77
2018-08-03T05:48:52.591Z,1018.79
2018-08-03T05:49:52.585Z,1018.79
2018-08-03T05:50:52.567Z,1018.80
2018-08-03T05:51:52.563Z,1018.83
2018-08-03T05:52:52.574Z,1018.82
2018-08-03T05:53:52.547Z,1018.82
2018-08-03T05:55:13.543Z,1018.82
2018-08-03T05:55:52.528Z,1018.81
2018-08-03T05:56:52.509Z,1018.80
2018-08-03T05:57:52.516Z,1018.82
2018-08-03T05:58:52.526Z,1018.82
2018-08-03T05:59:52.511Z,1018.84
2018-08-03T06:00:52.484Z,1018.85
2018-08-03T06:01:52.461Z,1018.87
2018-08-03T06:02:52.452Z,1018.89
2018-08-03T06:03:52.490Z,1018.88
2018-08-03T06:04:52.489Z,1018.88
2018-08-03T06:05:52.423Z,1018.86
2018-08-03T06:06:52.410Z,1018.85
2018-08-03T06:07:52.411Z,1018.87
2018-08-03T06:08:52.391Z,1018.88
2018-08-03T06:09:52.409Z,1018.86
2018-08-03T06:10:52.377Z,1018.87
2018-08-03T06:11:52.364Z,1018.84
2018-08-03T06:12:52.351Z,1018.86
2018-08-03T06:13:52.359Z,1018.84
2018-08-03T06:14:52.632Z,1018.84
2018-08-03T06:15:52.351Z,1018.90
2018-08-03T06:16:52.313Z,1018.88
2018-08-03T06:17:52.300Z,1018.91
2018-08-03T06:18:52.299Z,1018.90
2018-08-03T06:19:52.298Z,1018.92
2018-08-03T06:20:52.275Z,1018.89
2018-08-03T06:21:52.263Z,1018.89
2018-08-03T06:22:52.247Z,1018.89
2018-08-03T06:23:52.260Z,1018.84
2018-08-03T06:24:52.247Z,1018.86
2018-08-03T06:25:52.215Z,1018.83
2018-08-03T06:26:52.211Z,1018.86
2018-08-03T06:27:52.201Z,1018.86
2018-08-03T06:28:52.209Z,1018.88
2018-08-03T06:29:52.174Z,1018.87
2018-08-03T06:30:52.170Z,1018.89
2018-08-03T06:31:52.192Z,1018.92
2018-08-03T06:32:52.151Z,1018.89
2018-08-03T06:33:52.140Z,1018.95
2018-08-03T06:34:52.153Z,1018.89
2018-08-03T06:35:52.131Z,1018.88
2018-08-03T06:36:52.121Z,1018.88
2018-08-03T06:37:52.115Z,1018.88
2018-08-03T06:38:52.094Z,1018.86
2018-08-03T06:39:52.079Z,1018.87
2018-08-03T06:40:52.190Z,1018.87
2018-08-03T06:41:52.075Z,1018.89
2018-08-03T06:42:52.071Z,1018.87
2018-08-03T06:43:52.061Z,1018.84
2018-08-03T06:44:52.044Z,1018.85
2018-08-03T06:45:52.019Z,1018.88
2018-08-03T06:46:52.013Z,1018.89
2018-08-03T06:47:52.020Z,1018.93
2018-08-03T06:48:51.996Z,1018.93
2018-08-03T06:49:51.984Z,1018.96
2018-08-03T06:50:51.972Z,1018.97
2018-08-03T06:51:51.973Z,1018.93
2018-08-03T06:52:51.973Z,1018.97
2018-08-03T06:53:52.020Z,1018.97
2018-08-03T06:54:51.932Z,1018.97
2018-08-03T06:55:51.936Z,1018.96
2018-08-03T06:56:51.918Z,1019.00
2018-08-03T06:57:51.928Z,1018.93
2018-08-03T06:58:51.922Z,1018.94
2018-08-03T06:59:51.893Z,1018.95
2018-08-03T07:00:51.886Z,1018.96
2018-08-03T07:01:51.873Z,1018.98
2018-08-03T07:02:51.954Z,1019.00
2018-08-03T07:03:51.881Z,1018.98
2018-08-03T07:04:51.845Z,1019.01
2018-08-03T07:05:51.837Z,1018.98
2018-08-03T07:06:51.833Z,1018.96
2018-08-03T07:07:51.821Z,1018.95
2018-08-03T07:08:51.804Z,1018.96
2018-08-03T07:09:51.816Z,1018.97
2018-08-03T07:10:51.785Z,1018.97
2018-08-03T07:11:51.777Z,1019.00
2018-08-03T07:12:51.781Z,1018.99
2018-08-03T07:13:51.763Z,1018.97
2018-08-03T07:14:51.841Z,1018.99
2018-08-03T07:15:51.744Z,1019.09
2018-08-03T07:16:52.284Z,1018.99
2018-08-03T07:17:51.731Z,1018.96
2018-08-03T07:18:51.714Z,1018.99
2018-08-03T07:19:51.769Z,1019.01
2018-08-03T07:20:51.717Z,1018.99
2018-08-03T07:21:51.686Z,1019.05
2018-08-03T07:22:51.699Z,1019.13
2018-08-03T07:23:51.676Z,1019.06
2018-08-03T07:24:51.664Z,1018.95
2018-08-03T07:25:51.696Z,1018.96
2018-08-03T07:26:51.646Z,1018.95
2018-08-03T07:27:51.651Z,1018.93
2018-08-03T07:28:51.620Z,1018.96
2018-08-03T07:29:51.612Z,1018.95
2018-08-03T07:30:51.625Z,1018.94
2018-08-03T07:31:51.621Z,1018.96
2018-08-03T07:32:51.589Z,1018.98
2018-08-03T07:33:51.580Z,1018.95
2018-08-03T07:34:51.568Z,1018.93
2018-08-03T07:35:51.578Z,1018.97
2018-08-03T07:36:51.574Z,1018.93
2018-08-03T07:38:12.560Z,1018.94
2018-08-03T07:38:51.533Z,1018.93
2018-08-03T07:39:51.524Z,1018.93
2018-08-03T07:40:51.518Z,1018.92
2018-08-03T07:41:51.521Z,1018.93
2018-08-03T07:42:51.506Z,1018.95
2018-08-03T07:43:51.498Z,1018.94
2018-08-03T07:44:51.515Z,1019.00
2018-08-03T07:45:51.468Z,1018.96
2018-08-03T07:46:51.456Z,1018.93
2018-08-03T07:47:51.466Z,1018.97
2018-08-03T07:48:51.448Z,1018.97
2018-08-03T07:49:51.432Z,1018.97
2018-08-03T07:50:51.424Z,1018.98
2018-08-03T07:51:51.418Z,1018.99
2018-08-03T07:52:51.425Z,1018.97
2018-08-03T07:53:51.402Z,1018.99
2018-08-03T07:54:51.386Z,1018.99
2018-08-03T07:55:51.379Z,1018.96
2018-08-03T07:56:51.387Z,1018.96
2018-08-03T07:57:51.378Z,1019.00
2018-08-03T07:58:51.353Z,1018.96
2018-08-03T07:59:51.344Z,1018.95
2018-08-03T08:00:51.335Z,1018.94
2018-08-03T08:01:51.326Z,1018.96
2018-08-03T08:02:51.334Z,1018.94
2018-08-03T08:03:51.311Z,1018.93
2018-08-03T08:04:51.305Z,1018.92
2018-08-03T08:05:51.293Z,1018.87
2018-08-03T08:06:51.290Z,1018.87
2018-08-03T08:07:51.294Z,1018.84
2018-08-03T08:08:51.274Z,1018.82
2018-08-03T08:09:51.286Z,1018.83
2018-08-03T08:10:51.249Z,1018.86
2018-08-03T08:11:51.240Z,1018.83
2018-08-03T08:12:51.232Z,1018.81
2018-08-03T08:13:51.237Z,1018.86
2018-08-03T08:14:51.213Z,1018.82
2018-08-03T08:15:51.220Z,1018.83
2018-08-03T08:16:51.248Z,1018.82
2018-08-03T08:17:51.187Z,1018.80
2018-08-03T08:18:51.184Z,1018.81
2018-08-03T08:19:51.201Z,1018.79
2018-08-03T08:20:51.170Z,1018.81
2018-08-03T08:21:51.162Z,1018.81
2018-08-03T08:22:51.144Z,1018.79
2018-08-03T08:23:51.185Z,1018.80
2018-08-03T08:24:51.143Z,1018.79
2018-08-03T08:25:51.142Z,1018.77
2018-08-03T08:26:51.115Z,1018.78
2018-08-03T08:27:51.113Z,1018.78
2018-08-03T08:28:51.102Z,1018.76
2018-08-03T08:29:51.098Z,1018.75
2018-08-03T08:30:51.195Z,1018.70
2018-08-03T08:31:51.075Z,1018.72
2018-08-03T08:32:51.089Z,1018.69
2018-08-03T08:33:51.061Z,1018.71
2018-08-03T08:34:51.055Z,1018.68
2018-08-03T08:35:51.062Z,1018.72
2018-08-03T08:36:51.038Z,1018.67
2018-08-03T08:37:51.032Z,1018.70
2018-08-03T08:38:51.033Z,1018.71
2018-08-03T08:39:51.015Z,1018.71
2018-08-03T08:40:51.006Z,1018.67
2018-08-03T08:41:51.022Z,1018.72
2018-08-03T08:42:50.992Z,1018.67
2018-08-03T08:43:51.042Z,1018.68
2018-08-03T08:44:50.975Z,1018.65
2018-08-03T08:45:50.965Z,1018.63
2018-08-03T08:46:50.975Z,1018.65
2018-08-03T08:47:50.959Z,1018.65
2018-08-03T08:48:50.966Z,1018.63
2018-08-03T08:49:50.943Z,1018.63
2018-08-03T08:50:50.949Z,1018.62
2018-08-03T08:51:50.942Z,1018.62
2018-08-03T08:52:50.972Z,1018.63
2018-08-03T08:53:50.909Z,1018.62
2018-08-03T08:54:50.949Z,1018.62
2018-08-03T08:55:50.901Z,1018.62
2018-08-03T08:56:50.889Z,1018.69
2018-08-03T08:57:50.899Z,1018.65
2018-08-03T08:58:50.891Z,1018.70
2018-08-03T08:59:50.872Z,1018.70
2018-08-03T09:00:50.894Z,1018.67
2018-08-03T09:01:51.846Z,1018.67
2018-08-03T09:02:50.889Z,1018.64
2018-08-03T09:03:50.848Z,1018.59
2018-08-03T09:04:50.840Z,1018.62
2018-08-03T09:05:50.860Z,1018.62
2018-08-03T09:06:50.894Z,1018.63
2018-08-03T09:07:50.884Z,1018.64
2018-08-03T09:08:50.820Z,1018.60
2018-08-03T09:09:50.805Z,1018.59
2018-08-03T09:10:50.801Z,1018.65
2018-08-03T09:11:50.785Z,1018.56
2018-08-03T09:12:50.842Z,1018.61
2018-08-03T09:13:50.789Z,1018.63
2018-08-03T09:14:50.768Z,1018.61
2018-08-03T09:15:50.764Z,1018.62
2018-08-03T09:16:50.759Z,1018.58
2018-08-03T09:17:50.748Z,1018.66
2018-08-03T09:18:50.839Z,1018.62
2018-08-03T09:19:50.771Z,1018.59
2018-08-03T09:20:50.744Z,1018.58
2018-08-03T09:21:50.720Z,1018.58
2018-08-03T09:22:50.720Z,1018.62
2018-08-03T09:23:50.742Z,1018.73
2018-08-03T09:24:50.715Z,1018.72
2018-08-03T09:25:50.701Z,1018.76
2018-08-03T09:26:50.694Z,1018.77
2018-08-03T09:27:50.708Z,1018.79
2018-08-03T09:28:50.688Z,1018.79
2018-08-03T09:29:50.692Z,1018.77
2018-08-03T09:30:50.738Z,1018.76
2018-08-03T09:31:50.679Z,1018.71
2018-08-03T09:32:50.667Z,1018.77
2018-08-03T09:33:50.689Z,1018.64
2018-08-03T09:34:50.655Z,1018.59
2018-08-03T09:35:50.659Z,1018.54
2018-08-03T09:36:50.670Z,1018.41
2018-08-03T09:37:50.645Z,1018.25
2018-08-03T09:38:50.677Z,1018.07
2018-08-03T09:39:50.688Z,1017.85
2018-08-03T09:40:50.657Z,1017.65
2018-08-03T09:41:50.638Z,1017.59
2018-08-03T09:42:50.677Z,1017.30
2018-08-03T09:44:11.658Z,1017.11
2018-08-03T09:44:50.641Z,1016.85
2018-08-03T09:45:50.642Z,1016.55
2018-08-03T09:46:50.655Z,1016.48
2018-08-03T09:47:50.634Z,1016.43
2018-08-03T09:48:50.628Z,1016.51
2018-08-03T09:49:50.666Z,1016.56
2018-08-03T09:50:50.626Z,1016.68
2018-08-03T09:51:50.620Z,1016.72
2018-08-03T09:52:50.628Z,1016.99
2018-08-03T09:53:50.628Z,1017.23
2018-08-03T09:54:50.630Z,1017.40
2018-08-03T09:55:50.653Z,1017.52
2018-08-03T09:56:50.621Z,1017.68
2018-08-03T09:57:50.633Z,1017.91
2018-08-03T09:58:50.642Z,1018.00
2018-08-03T09:59:50.646Z,1018.07
2018-08-03T10:00:50.644Z,1018.18
2018-08-03T10:01:50.696Z,1018.24
2018-08-03T10:02:50.667Z,1018.32
2018-08-03T10:03:50.649Z,1018.44
2018-08-03T10:04:50.633Z,1018.47
2018-08-03T10:05:50.637Z,1018.48
2018-08-03T10:06:50.652Z,1018.51
2018-08-03T10:07:50.638Z,1018.54
2018-08-03T10:08:50.644Z,1018.55
2018-08-03T10:09:50.655Z,1018.58
2018-08-03T10:10:50.640Z,1018.56
2018-08-03T10:11:50.662Z,1018.57
2018-08-03T10:12:50.701Z,1018.54
2018-08-03T10:13:50.660Z,1018.57
2018-08-03T10:14:50.652Z,1018.54
2018-08-03T10:15:50.654Z,1018.57
2018-08-03T10:16:50.655Z,1018.56
2018-08-03T10:17:50.658Z,1018.61
2018-08-03T10:18:50.672Z,1018.58
2018-08-03T10:19:50.657Z,1018.57
2018-08-03T10:20:50.666Z,1018.54
2018-08-03T10:21:50.661Z,1018.54
2018-08-03T10:22:50.669Z,1018.50
2018-08-03T10:23:50.688Z,1018.51
2018-08-03T10:24:50.676Z,1018.51
2018-08-03T10:25:50.672Z,1018.47
2018-08-03T10:26:50.672Z,1018.49
2018-08-03T10:27:50.682Z,1018.49
2018-08-03T10:28:50.701Z,1018.46
2018-08-03T10:29:50.699Z,1018.45
2018-08-03T10:30:50.708Z,1018.41
2018-08-03T10:31:50.695Z,1018.38
2018-08-03T10:32:50.696Z,1018.38
2018-08-03T10:33:50.699Z,1018.39
2018-08-03T10:34:50.704Z,1018.39
2018-08-03T10:35:50.718Z,1018.40
2018-08-03T10:36:50.717Z,1018.41
2018-08-03T10:37:50.711Z,1018.35
2018-08-03T10:38:50.711Z,1018.36
2018-08-03T10:39:50.739Z,1018.36
2018-08-03T10:40:50.737Z,1018.31
2018-08-03T10:41:50.718Z,1018.24
2018-08-03T10:42:50.743Z,1018.23
2018-08-03T10:43:50.724Z,1018.26
2018-08-03T10:44:50.760Z,1018.23
2018-08-03T10:45:50.743Z,1018.27
2018-08-03T10:46:50.737Z,1018.23
2018-08-03T10:47:50.746Z,1018.22
2018-08-03T10:48:50.787Z,1018.25
2018-08-03T10:49:50.749Z,1018.20
2018-08-03T10:50:50.763Z,1018.17
2018-08-03T10:51:50.771Z,1018.15
2018-08-03T10:52:50.754Z,1018.17
2018-08-03T10:53:50.767Z,1018.13
2018-08-03T10:54:50.766Z,1018.14
2018-08-03T10:55:50.788Z,1018.14
2018-08-03T10:56:50.785Z,1018.09
2018-08-03T10:57:50.776Z,1018.08
2018-08-03T10:58:50.789Z,1018.09
2018-08-03T10:59:50.781Z,1018.12
2018-08-03T11:00:50.788Z,1018.10
2018-08-03T11:01:50.820Z,1018.09
2018-08-03T11:02:50.794Z,1018.08
2018-08-03T11:03:50.799Z,1018.06
2018-08-03T11:04:50.818Z,1018.07
2018-08-03T11:05:50.804Z,1018.02
2018-08-03T11:06:50.826Z,1018.06
2018-08-03T11:07:50.814Z,1018.04
2018-08-03T11:08:50.829Z,1018.03
2018-08-03T11:09:50.831Z,1018.01
2018-08-03T11:10:50.825Z,1018.03
2018-08-03T11:11:50.821Z,1018.03
2018-08-03T11:12:50.836Z,1018.01
2018-08-03T11:13:50.851Z,1017.94
2018-08-03T11:14:50.842Z,1017.93
2018-08-03T11:15:50.866Z,1017.92
2018-08-03T11:16:50.858Z,1017.90
2018-08-03T11:17:53.354Z,1017.94
2018-08-03T11:18:50.857Z,1017.89
2018-08-03T11:19:50.878Z,1017.85
2018-08-03T11:20:50.872Z,1017.88
2018-08-03T11:21:50.872Z,1017.87
2018-08-03T11:22:50.892Z,1017.86
2018-08-03T11:23:50.885Z,1017.85
2018-08-03T11:24:50.880Z,1017.83
2018-08-03T11:25:50.900Z,1017.83
2018-08-03T11:26:50.908Z,1017.76
2018-08-03T11:27:50.903Z,1017.83
2018-08-03T11:28:50.903Z,1017.80
2018-08-03T11:29:50.946Z,1017.78
2018-08-03T11:30:50.913Z,1017.79
2018-08-03T11:31:50.935Z,1017.80
2018-08-03T11:32:50.937Z,1017.76
2018-08-03T11:33:50.919Z,1017.75
2018-08-03T11:34:50.938Z,1017.77
2018-08-03T11:35:50.934Z,1017.71
2018-08-03T11:36:50.946Z,1017.75
2018-08-03T11:37:50.935Z,1017.77
2018-08-03T11:38:50.937Z,1017.78
2018-08-03T11:39:50.945Z,1017.76
2018-08-03T11:40:51.000Z,1017.77
2018-08-03T11:41:50.977Z,1017.73
2018-08-03T11:42:50.962Z,1017.73
2018-08-03T11:43:50.966Z,1017.72
2018-08-03T11:44:50.969Z,1017.78
2018-08-03T11:45:50.987Z,1017.71
2018-08-03T11:46:50.972Z,1017.73
2018-08-03T11:47:50.976Z,1017.74
2018-08-03T11:48:50.978Z,1017.68
2018-08-03T11:49:50.998Z,1017.70
2018-08-03T11:50:50.992Z,1017.64
2018-08-03T11:51:51.000Z,1017.63
2018-08-03T11:52:51.003Z,1017.48
2018-08-03T11:53:51.003Z,1017.52
2018-08-03T11:54:51.024Z,1017.58
2018-08-03T11:55:51.017Z,1017.58
2018-08-03T11:56:51.024Z,1017.59
2018-08-03T11:57:51.019Z,1017.62
2018-08-03T11:58:51.026Z,1017.61
2018-08-03T11:59:51.046Z,1017.59
2018-08-03T12:00:51.102Z,1017.57
2018-08-03T12:01:51.056Z,1017.59
2018-08-03T12:02:51.048Z,1017.55
2018-08-03T12:03:51.049Z,1017.56
2018-08-03T12:04:51.064Z,1017.54
2018-08-03T12:05:51.080Z,1017.57